メインページ
METAR-TAF:

METAR-TAF

空港 :

キト, エクアドル

マリスカル・スクレ国際空港

緯度: 0-06-48S, 経度: 78-21-31W, 海抜: 2400m

現時点の気象観測

当レポートは16分前の02:00(UTC)に作成
の風 3kt
気温 13°C
湿度 100%
気圧 1028 hPa
視程: 4000m
高度400ftの千切れ雲あり
高度1600ftの曇り
小雨, 靄

METAR: SEQM 010200Z 01003KT 4000 -RA BR BKN004 OVC016 13/13 Q1028 NOSIG RMK A3036

時間: 21:16 (02:16 UTC)

予報

当レポートは3時間36分前の22:40(UTC)に作成
予報は01日の 00時(UTC)から 01日の 24時(UTC)まで有効
北/北東の風 4kt
視程10km以上
高度1000ftの雲は散在している
高度3000ftの千切れ雲あり
高度10000ftの千切れ雲あり
確率 30% :
01日の 00時(UTC)から 01日の 02時(UTC)まで一時的に
視程: 5000m
01日の 0400時(UTC)から
の風 kt
視程: 5000m
高度500ftの雲は散在している
高度2000ftの千切れ雲あり
散在霧
01日の 1300時(UTC)から
変向風 3kt
視程10km以上
高度2000ftの雲は散在している
高度9000ftの千切れ雲あり
01日の 1800時(UTC)から
の風 12kt
視程10km以上
高度3000ftの千切れ雲あり
高度10000ftの雲は散在している
01日の 20時(UTC)から 01日の 23時(UTC)まで一時的に
高度3000ftの千切れ雲あり, 塔状積雲.
高度10000ftの千切れ雲あり
にわか雨

TAF: SEQM 302240Z 0100/0124 03004KT 9999 SCT010 BKN030 BKN100 PROB30 TEMPO 0100/0102 5000 RA FM010400 00000KT 5000 BCFG SCT005 BKN020 FM011300 VRB03KT 9999 SCT020 BKN090 FM011800 36012KT 9999 BKN030 SCT100 TEMPO 0120/0123 SHRA BKN030TCU BKN100 TX22/0119Z TN12/0111Z

4,000以上の空港の気象観測と天気予報(METAR報とTAF報)

利用可能な観測所は地図上に黄色い丸と赤い丸で示す。

丸の上にカーソルを重ねると観測所名を参照できる。

次にクリックすると気象観測と天気予報を参照できる。

マップの切り替え:黒色「×」印の緑ボタンをクリックして拡大、「-」印の緑ボタンをクリックして縮小、緑色の三角印をクリックして隣りの地図に切り替え


METAR-TAF: